Time;durP1;ratioP1;P1;durP2;ratioP2;P2;SDS_P1;SDS_P2;PMS_P1;PMS_P2;Temp;Humidity;BMP_temperature;BMP_pressure;BME280_temperature;BME280_humidity;BME280_pressure;Samples;Min_cycle;Max_cycle;Signal;HPM_P1;HPM_P2
2023/09/09 00:01:13;;;;;;;13.68;8.05;;;;;;;;;;4947799;29;20118;-79
2023/09/09 00:03:41;;;;;;;12.82;5.53;;;;;;;;;;4945025;29;20086;-79
2023/09/09 00:06:10;;;;;;;10.10;5.55;;;;;;;;;;4960118;29;20119;-79
2023/09/09 00:08:35;;;;;;;11.63;5.03;;;;;;;;;;4943481;29;20038;-78
2023/09/09 00:11:01;;;;;;;8.65;5.32;;;;;;;;;;4943671;29;20028;-78
2023/09/09 00:13:29;;;;;;;11.35;5.32;;;;;;;;;;4942413;29;20376;-79
2023/09/09 00:15:55;;;;;;;10.38;6.18;;;;;;;;;;4944172;29;20559;-79
2023/09/09 00:18:21;;;;;;;8.60;5.55;;;;;;;;;;4959744;29;20447;-80
2023/09/09 00:20:49;;;;;;;9.02;5.53;;;;;;;;;;4959853;28;20031;-79
2023/09/09 00:23:15;;;;;;;10.43;5.50;;;;;;;;;;4958407;29;20023;-80
2023/09/09 00:25:41;;;;;;;12.07;5.15;;;;;;;;;;4956967;29;20039;-78
2023/09/09 00:28:07;;;;;;;8.25;5.40;;;;;;;;;;4941097;29;20031;-79
2023/09/09 00:30:33;;;;;;;7.30;5.13;;;;;;;;;;4956796;29;20039;-79
2023/09/09 00:32:59;;;;;;;8.90;5.18;;;;;;;;;;4956848;29;20476;-78
2023/09/09 00:35:26;;;;;;;12.40;5.32;;;;;;;;;;4957592;28;20028;-79
2023/09/09 00:37:51;;;;;;;9.80;5.55;;;;;;;;;;4942071;29;20499;-79
2023/09/09 00:40:17;;;;;;;11.45;5.82;;;;;;;;;;4958211;29;20050;-78
2023/09/09 00:42:42;;;;;;;8.70;5.15;;;;;;;;;;4962810;28;20070;-79
2023/09/09 00:45:08;;;;;;;12.02;5.53;;;;;;;;;;4961113;29;20042;-79
2023/09/09 00:47:34;;;;;;;10.05;5.40;;;;;;;;;;4960381;29;20035;-79
2023/09/09 00:50:00;;;;;;;9.13;5.10;;;;;;;;;;4962223;28;20041;-79
2023/09/09 00:52:26;;;;;;;8.23;5.03;;;;;;;;;;4962720;28;20446;-78
2023/09/09 00:54:52;;;;;;;9.50;5.85;;;;;;;;;;4944895;29;20038;-79
2023/09/09 00:57:21;;;;;;;8.48;5.70;;;;;;;;;;4928728;29;20142;-79
2023/09/09 00:59:46;;;;;;;10.93;5.57;;;;;;;;;;4941731;29;20514;-80
2023/09/09 01:02:12;;;;;;;8.68;5.25;;;;;;;;;;4942503;29;20036;-79
2023/09/09 01:04:37;;;;;;;9.00;5.30;;;;;;;;;;4944483;29;20034;-80
2023/09/09 01:07:03;;;;;;;12.68;5.20;;;;;;;;;;4941314;29;20404;-79
2023/09/09 01:09:30;;;;;;;9.57;5.38;;;;;;;;;;4940490;29;20436;-78
2023/09/09 01:11:56;;;;;;;8.90;5.10;;;;;;;;;;4957466;29;20028;-80
2023/09/09 01:14:24;;;;;;;9.95;5.90;;;;;;;;;;4941482;29;20086;-79
2023/09/09 01:16:53;;;;;;;10.25;5.43;;;;;;;;;;4964590;28;20031;-79
2023/09/09 01:19:21;;;;;;;10.02;5.22;;;;;;;;;;4941763;29;20047;-78
2023/09/09 01:21:47;;;;;;;8.20;5.45;;;;;;;;;;4943486;29;20160;-79
2023/09/09 01:24:15;;;;;;;10.88;5.60;;;;;;;;;;4959104;29;20064;-80
2023/09/09 01:26:43;;;;;;;9.30;5.50;;;;;;;;;;4958258;28;20035;-79
2023/09/09 01:29:09;;;;;;;9.30;5.85;;;;;;;;;;4942790;29;20023;-79
2023/09/09 01:31:35;;;;;;;8.90;5.43;;;;;;;;;;4960821;28;20024;-80
2023/09/09 01:34:00;;;;;;;9.25;5.32;;;;;;;;;;4957930;28;20029;-80
2023/09/09 01:36:26;;;;;;;9.43;5.32;;;;;;;;;;4944612;29;20063;-78
2023/09/09 01:38:51;;;;;;;11.68;5.85;;;;;;;;;;4965657;29;20023;-80
2023/09/09 01:41:17;;;;;;;9.52;5.68;;;;;;;;;;4961340;28;20074;-79
2023/09/09 01:43:42;;;;;;;10.05;5.43;;;;;;;;;;4946073;29;20063;-79
2023/09/09 01:46:08;;;;;;;8.57;5.38;;;;;;;;;;4929880;28;20483;-79
2023/09/09 01:48:33;;;;;;;8.48;5.30;;;;;;;;;;4959563;28;20035;-80
2023/09/09 01:50:59;;;;;;;10.63;5.82;;;;;;;;;;4958585;29;20035;-79
2023/09/09 01:53:24;;;;;;;10.48;5.03;;;;;;;;;;4959625;28;20035;-80
2023/09/09 01:55:50;;;;;;;9.07;5.55;;;;;;;;;;4943440;29;20118;-80
2023/09/09 01:58:16;;;;;;;13.02;5.75;;;;;;;;;;4939371;29;20115;-79
2023/09/09 02:00:42;;;;;;;13.35;5.40;;;;;;;;;;4939623;29;20035;-80
2023/09/09 02:03:08;;;;;;;9.77;5.97;;;;;;;;;;4938504;29;20131;-79
2023/09/09 02:05:34;;;;;;;8.35;5.47;;;;;;;;;;4921677;29;20054;-78
2023/09/09 02:08:01;;;;;;;9.43;5.88;;;;;;;;;;4921324;29;20170;-80
2023/09/09 02:10:26;;;;;;;8.65;5.57;;;;;;;;;;4938535;29;20043;-80
2023/09/09 02:12:52;;;;;;;7.95;5.05;;;;;;;;;;4922972;29;20439;-79
2023/09/09 02:15:17;;;;;;;9.68;5.10;;;;;;;;;;4923522;29;20028;-79
2023/09/09 02:17:45;;;;;;;10.25;5.55;;;;;;;;;;4940079;29;20114;-79
2023/09/09 02:20:11;;;;;;;10.45;5.85;;;;;;;;;;4940362;29;20468;-79
2023/09/09 02:22:40;;;;;;;10.02;6.10;;;;;;;;;;4939272;29;20130;-80
2023/09/09 02:25:07;;;;;;;11.13;6.10;;;;;;;;;;4939524;29;20059;-79
2023/09/09 02:27:33;;;;;;;13.73;5.85;;;;;;;;;;4940843;29;20492;-79
2023/09/09 02:30:00;;;;;;;12.48;6.20;;;;;;;;;;4940747;29;20059;-80
2023/09/09 02:32:25;;;;;;;9.82;6.07;;;;;;;;;;4940301;29;20479;-79
2023/09/09 02:34:51;;;;;;;11.35;5.70;;;;;;;;;;4939301;29;20115;-79
2023/09/09 02:37:21;;;;;;;11.18;5.63;;;;;;;;;;4923534;29;20040;-79
2023/09/09 02:39:47;;;;;;;11.77;5.70;;;;;;;;;;4940252;29;20039;-79
2023/09/09 02:42:17;;;;;;;9.75;5.30;;;;;;;;;;4939060;29;20479;-80
2023/09/09 02:44:43;;;;;;;11.27;5.45;;;;;;;;;;4924151;29;20496;-80
2023/09/09 02:47:09;;;;;;;8.50;5.82;;;;;;;;;;4938706;29;20066;-80
2023/09/09 02:49:35;;;;;;;8.93;5.95;;;;;;;;;;4938683;29;20032;-79
2023/09/09 02:52:01;;;;;;;11.00;6.55;;;;;;;;;;4939303;29;20042;-79
2023/09/09 02:54:27;;;;;;;9.20;6.15;;;;;;;;;;4939527;29;20079;-80
2023/09/09 02:56:52;;;;;;;9.68;6.20;;;;;;;;;;4940853;29;20032;-80
2023/09/09 02:59:18;;;;;;;9.35;5.80;;;;;;;;;;4940241;29;20123;-80
2023/09/09 03:01:48;;;;;;;20.95;12.70;;;;;;;;;;4943688;29;20032;-79
2023/09/09 03:04:13;;;;;;;14.32;8.98;;;;;;;;;;4944032;29;20395;-80
2023/09/09 03:06:39;;;;;;;10.80;6.07;;;;;;;;;;4946810;29;20031;-82
2023/09/09 03:09:05;;;;;;;12.40;5.55;;;;;;;;;;4969868;23;20055;-78
2023/09/09 03:11:31;;;;;;;10.95;6.38;;;;;;;;;;4947494;29;20032;-77
2023/09/09 03:13:57;;;;;;;11.02;5.85;;;;;;;;;;4945502;29;20394;-78
2023/09/09 03:16:23;;;;;;;10.38;6.22;;;;;;;;;;4945933;29;20125;-78
2023/09/09 03:18:50;;;;;;;10.02;6.07;;;;;;;;;;4960963;28;20035;-77
2023/09/09 03:21:15;;;;;;;14.48;6.28;;;;;;;;;;4942599;29;20039;-77
2023/09/09 03:23:41;;;;;;;10.02;5.75;;;;;;;;;;4943282;29;20392;-78
2023/09/09 03:26:08;;;;;;;12.57;5.32;;;;;;;;;;4942521;29;20028;-77
2023/09/09 03:28:34;;;;;;;14.27;5.65;;;;;;;;;;4941915;29;20032;-78
2023/09/09 03:31:02;;;;;;;11.90;6.35;;;;;;;;;;4926339;29;20062;-77
2023/09/09 03:33:30;;;;;;;10.93;6.07;;;;;;;;;;4926028;29;20502;-78
2023/09/09 03:35:56;;;;;;;10.20;5.50;;;;;;;;;;4926922;29;20099;-78
2023/09/09 03:38:22;;;;;;;9.95;5.05;;;;;;;;;;4926005;29;20459;-78
2023/09/09 03:40:48;;;;;;;9.15;5.93;;;;;;;;;;4925869;29;20027;-78
2023/09/09 03:43:14;;;;;;;9.52;5.80;;;;;;;;;;4941686;29;20046;-77
2023/09/09 03:45:39;;;;;;;12.13;5.78;;;;;;;;;;4942209;29;20028;-78
2023/09/09 03:48:05;;;;;;;14.55;6.30;;;;;;;;;;4956786;29;20043;-78
2023/09/09 03:50:31;;;;;;;11.10;5.20;;;;;;;;;;4941332;29;20059;-78
2023/09/09 03:52:57;;;;;;;10.10;5.57;;;;;;;;;;4942103;29;20040;-78
2023/09/09 03:55:22;;;;;;;11.20;6.53;;;;;;;;;;4941754;29;20028;-78
2023/09/09 03:57:48;;;;;;;12.40;5.72;;;;;;;;;;4958134;29;20035;-78
2023/09/09 04:00:14;;;;;;;11.57;8.82;;;;;;;;;;4960446;28;20062;-77
2023/09/09 04:02:40;;;;;;;8.65;6.05;;;;;;;;;;4961324;29;20031;-77
2023/09/09 04:05:07;;;;;;;12.45;6.60;;;;;;;;;;4960968;29;20095;-78
2023/09/09 04:07:35;;;;;;;11.30;6.20;;;;;;;;;;4964472;29;20035;-78
2023/09/09 04:10:02;;;;;;;12.45;5.63;;;;;;;;;;4946533;29;20059;-78
2023/09/09 04:12:28;;;;;;;11.32;5.85;;;;;;;;;;4965229;29;20028;-78
2023/09/09 04:14:53;;;;;;;10.23;5.60;;;;;;;;;;4964697;29;20055;-77
2023/09/09 04:17:19;;;;;;;10.45;5.50;;;;;;;;;;4945229;29;20083;-78
2023/09/09 04:19:45;;;;;;;11.10;5.32;;;;;;;;;;4960871;28;20035;-77
2023/09/09 04:22:10;;;;;;;10.07;5.43;;;;;;;;;;4945356;29;20066;-77
2023/09/09 04:24:36;;;;;;;9.73;5.88;;;;;;;;;;4960281;29;20059;-78
2023/09/09 04:27:02;;;;;;;9.25;5.47;;;;;;;;;;4945450;29;20513;-77
2023/09/09 04:29:28;;;;;;;10.38;5.57;;;;;;;;;;4960454;28;20035;-78
2023/09/09 04:31:54;;;;;;;10.00;6.13;;;;;;;;;;4962204;29;20057;-78
2023/09/09 04:34:19;;;;;;;10.00;6.53;;;;;;;;;;4932348;29;20031;-79
2023/09/09 04:36:45;;;;;;;9.00;5.68;;;;;;;;;;4948214;29;20035;-78
2023/09/09 04:39:15;;;;;;;11.30;6.10;;;;;;;;;;4951013;29;20033;-78
2023/09/09 04:41:44;;;;;;;11.75;5.68;;;;;;;;;;4965914;28;20063;-77
2023/09/09 04:44:10;;;;;;;7.75;5.50;;;;;;;;;;4961378;29;20027;-78
2023/09/09 04:46:37;;;;;;;10.20;6.07;;;;;;;;;;4944543;29;20038;-78
2023/09/09 04:49:03;;;;;;;9.43;5.85;;;;;;;;;;4960138;28;20035;-78
2023/09/09 04:51:32;;;;;;;9.02;5.78;;;;;;;;;;4975610;28;20543;-78
2023/09/09 04:53:59;;;;;;;9.85;5.70;;;;;;;;;;4943648;29;20062;-78
2023/09/09 04:56:25;;;;;;;10.57;6.60;;;;;;;;;;4927705;29;20035;-77
2023/09/09 04:58:51;;;;;;;9.38;5.63;;;;;;;;;;4948033;28;20046;-77
2023/09/09 05:01:17;;;;;;;12.50;5.85;;;;;;;;;;4975670;28;20035;-77
2023/09/09 05:03:42;;;;;;;12.00;7.65;;;;;;;;;;4977101;28;20027;-78
2023/09/09 05:06:08;;;;;;;13.95;6.63;;;;;;;;;;4959453;28;20146;-77
2023/09/09 05:08:34;;;;;;;10.18;5.80;;;;;;;;;;4944025;29;20038;-77
2023/09/09 05:11:00;;;;;;;8.77;5.82;;;;;;;;;;4976324;28;20070;-78
2023/09/09 05:13:27;;;;;;;12.73;7.03;;;;;;;;;;4960801;29;20023;-77
2023/09/09 05:15:55;;;;;;;9.60;5.68;;;;;;;;;;4944556;29;20027;-77
2023/09/09 05:18:22;;;;;;;11.48;5.85;;;;;;;;;;4975196;28;20047;-78
2023/09/09 05:20:47;;;;;;;10.88;5.90;;;;;;;;;;4943668;28;20046;-77
2023/09/09 05:23:13;;;;;;;9.18;5.47;;;;;;;;;;4960794;28;20027;-77
2023/09/09 05:25:38;;;;;;;10.85;5.47;;;;;;;;;;4942849;29;20048;-78
2023/09/09 05:28:05;;;;;;;9.07;5.75;;;;;;;;;;4958592;29;20032;-78
2023/09/09 05:30:38;;;;;;;9.30;6.18;;;;;;;;;;4944446;29;20051;-78
2023/09/09 05:33:04;;;;;;;10.23;5.65;;;;;;;;;;4943674;29;20034;-77
2023/09/09 05:35:32;;;;;;;10.02;5.72;;;;;;;;;;4943623;29;20038;-77
2023/09/09 05:37:58;;;;;;;10.93;5.43;;;;;;;;;;4960120;28;20434;-77
2023/09/09 05:40:24;;;;;;;10.18;5.57;;;;;;;;;;4959477;28;20039;-77
2023/09/09 05:42:49;;;;;;;15.07;6.10;;;;;;;;;;4959416;29;20051;-78
2023/09/09 05:45:15;;;;;;;10.80;5.30;;;;;;;;;;4959569;29;20038;-77
2023/09/09 05:47:42;;;;;;;9.52;5.75;;;;;;;;;;4958605;29;20032;-78
2023/09/09 05:50:08;;;;;;;8.20;5.80;;;;;;;;;;4943319;29;20046;-77
2023/09/09 05:52:34;;;;;;;10.98;6.00;;;;;;;;;;4943732;29;20035;-78
2023/09/09 05:54:59;;;;;;;8.50;5.43;;;;;;;;;;4960347;28;20033;-78
2023/09/09 05:57:25;;;;;;;9.57;5.50;;;;;;;;;;4960488;29;20043;-78
2023/09/09 05:59:54;;;;;;;9.38;5.68;;;;;;;;;;4962472;28;20125;-78
2023/09/09 06:02:19;;;;;;;;;;;;;;;;;;4960322;29;20055;-77
2023/09/09 06:04:45;;;;;;;11.77;5.53;;;;;;;;;;4960907;29;19910;-78
2023/09/09 06:07:11;;;;;;;7.57;4.75;;;;;;;;;;4956387;29;20066;-77
2023/09/09 06:09:37;;;;;;;10.32;5.72;;;;;;;;;;4954667;28;20062;-78
2023/09/09 06:12:03;;;;;;;8.88;5.25;;;;;;;;;;4939662;29;20031;-77
2023/09/09 06:14:28;;;;;;;9.55;5.70;;;;;;;;;;4954832;29;20082;-77
2023/09/09 06:16:54;;;;;;;8.68;5.72;;;;;;;;;;4938340;29;20031;-77
2023/09/09 06:19:20;;;;;;;9.98;4.70;;;;;;;;;;4954459;28;20038;-78
2023/09/09 06:21:45;;;;;;;8.18;5.20;;;;;;;;;;4955766;28;20047;-78
2023/09/09 06:24:12;;;;;;;10.68;5.70;;;;;;;;;;4957731;29;20444;-78
2023/09/09 06:26:38;;;;;;;7.43;4.95;;;;;;;;;;4967147;29;20043;-77
2023/09/09 06:29:04;;;;;;;9.38;5.47;;;;;;;;;;4978766;28;20032;-78
2023/09/09 06:31:30;;;;;;;7.90;4.75;;;;;;;;;;4947617;29;20027;-76
2023/09/09 06:33:56;;;;;;;7.75;5.03;;;;;;;;;;4981116;28;20047;-78
2023/09/09 06:36:22;;;;;;;7.35;4.75;;;;;;;;;;4942323;29;20484;-78
2023/09/09 06:38:49;;;;;;;6.32;4.35;;;;;;;;;;4956842;29;20027;-78
2023/09/09 06:41:17;;;;;;;8.15;5.20;;;;;;;;;;4951601;29;20047;-78
2023/09/09 06:43:43;;;;;;;10.65;5.90;;;;;;;;;;4937024;29;20028;-79
2023/09/09 06:46:08;;;;;;;7.80;5.07;;;;;;;;;;4935546;29;20058;-78
2023/09/09 06:48:34;;;;;;;7.07;4.55;;;;;;;;;;4967853;28;20444;-78
2023/09/09 06:51:00;;;;;;;8.32;4.80;;;;;;;;;;4918761;29;20040;-79
2023/09/09 06:53:26;;;;;;;8.60;5.32;;;;;;;;;;4969678;28;20663;-77
2023/09/09 06:55:51;;;;;;;7.43;4.53;;;;;;;;;;4937855;29;20035;-78
2023/09/09 06:58:17;;;;;;;10.88;5.03;;;;;;;;;;4954550;28;20028;-77
2023/09/09 07:00:51;;;;;;;8.50;4.55;;;;;;;;;;4954989;28;20447;-76
2023/09/09 07:03:17;;;;;;;12.13;4.57;;;;;;;;;;4954323;29;20431;-77
2023/09/09 07:05:43;;;;;;;9.07;4.70;;;;;;;;;;4955196;28;20121;-77
2023/09/09 07:08:09;;;;;;;8.20;4.35;;;;;;;;;;4953360;29;20468;-77
2023/09/09 07:10:34;;;;;;;7.93;3.95;;;;;;;;;;4953002;28;20435;-77
2023/09/09 07:13:00;;;;;;;8.40;4.50;;;;;;;;;;4953194;29;20504;-77
2023/09/09 07:15:25;;;;;;;7.57;4.18;;;;;;;;;;4936877;29;20036;-78
2023/09/09 07:17:51;;;;;;;7.40;4.82;;;;;;;;;;4954651;28;20046;-77
2023/09/09 07:20:19;;;;;;;7.30;4.65;;;;;;;;;;4936879;29;20039;-77
2023/09/09 07:22:47;;;;;;;8.00;4.78;;;;;;;;;;4953246;29;20399;-78
2023/09/09 07:25:12;;;;;;;8.48;4.38;;;;;;;;;;4952735;29;20042;-77
2023/09/09 07:27:38;;;;;;;7.22;4.32;;;;;;;;;;4936672;29;20031;-78
2023/09/09 07:30:04;;;;;;;8.65;4.60;;;;;;;;;;4935644;29;20032;-78
2023/09/09 07:32:30;;;;;;;7.03;4.32;;;;;;;;;;4951796;29;20213;-78
2023/09/09 07:34:56;;;;;;;9.68;4.22;;;;;;;;;;4936249;29;20059;-78
2023/09/09 07:37:21;;;;;;;7.45;4.20;;;;;;;;;;4936252;29;20087;-78
2023/09/09 07:39:50;;;;;;;8.68;4.72;;;;;;;;;;4935423;29;20035;-78
2023/09/09 07:42:16;;;;;;;7.20;4.10;;;;;;;;;;4933747;29;20032;-78
2023/09/09 07:44:43;;;;;;;8.18;4.45;;;;;;;;;;4933514;29;20043;-77
2023/09/09 07:50:06;;;;;;;12.10;4.47;;;;;;;;;;4906580;29;20095;-78
2023/09/09 07:52:32;;;;;;;7.03;4.00;;;;;;;;;;4920069;29;20464;-77
2023/09/09 07:54:57;;;;;;;7.00;3.70;;;;;;;;;;4934773;29;20040;-77
2023/09/09 07:57:23;;;;;;;10.15;4.28;;;;;;;;;;4933316;29;20039;-77
2023/09/09 07:59:49;;;;;;;10.57;5.75;;;;;;;;;;4918409;29;20139;-77
2023/09/09 08:02:15;;;;;;;7.25;4.22;;;;;;;;;;4919511;29;20075;-78
2023/09/09 08:04:40;;;;;;;7.05;4.50;;;;;;;;;;4919605;29;20024;-78
2023/09/09 08:07:05;;;;;;;8.77;4.65;;;;;;;;;;4919154;29;20107;-76
2023/09/09 08:09:32;;;;;;;7.97;4.18;;;;;;;;;;4900198;29;20021;-77
2023/09/09 08:11:58;;;;;;;8.32;4.10;;;;;;;;;;4899150;29;20036;-78
2023/09/09 08:14:23;;;;;;;8.00;4.70;;;;;;;;;;4899264;29;20033;-77
2023/09/09 08:16:49;;;;;;;6.68;3.75;;;;;;;;;;4914425;29;20028;-77
2023/09/09 08:19:15;;;;;;;7.53;3.80;;;;;;;;;;4914497;29;20191;-77
2023/09/09 08:21:41;;;;;;;6.18;3.97;;;;;;;;;;4899201;29;20080;-77
2023/09/09 08:24:07;;;;;;;8.82;4.07;;;;;;;;;;4898598;29;20036;-77
2023/09/09 08:26:32;;;;;;;9.27;4.93;;;;;;;;;;4898949;29;20037;-77
2023/09/09 08:28:58;;;;;;;6.75;4.43;;;;;;;;;;4915046;29;20044;-77
2023/09/09 08:31:24;;;;;;;10.55;4.40;;;;;;;;;;4900976;29;20032;-77
2023/09/09 08:33:49;;;;;;;9.27;4.25;;;;;;;;;;4916109;29;20028;-76
2023/09/09 08:36:15;;;;;;;7.53;4.15;;;;;;;;;;4901675;29;20044;-77
2023/09/09 08:38:41;;;;;;;7.40;4.07;;;;;;;;;;4901180;29;20091;-77
2023/09/09 08:41:27;;;;;;;8.35;4.22;;;;;;;;;;4900795;29;20118;-77
2023/09/09 08:44:02;;;;;;;9.95;4.18;;;;;;;;;;4888788;29;20041;-76
2023/09/09 08:46:27;;;;;;;8.25;4.50;;;;;;;;;;4905595;29;20036;-78
2023/09/09 08:48:54;;;;;;;10.75;4.38;;;;;;;;;;4915058;29;20040;-78
2023/09/09 08:51:25;;;;;;;8.43;4.70;;;;;;;;;;4913645;29;20484;-78
2023/09/09 08:53:52;;;;;;;6.47;3.92;;;;;;;;;;4915579;29;20024;-78
2023/09/09 08:56:17;;;;;;;9.73;4.22;;;;;;;;;;4898300;29;20033;-77
2023/09/09 08:58:43;;;;;;;7.57;4.38;;;;;;;;;;4893671;29;20099;-77
2023/09/09 09:01:10;;;;;;;7.53;4.03;;;;;;;;;;4883162;29;20412;-77
2023/09/09 09:03:36;;;;;;;13.85;5.13;;;;;;;;;;4888930;29;20459;-77
2023/09/09 09:06:03;;;;;;;6.57;3.90;;;;;;;;;;4891643;29;20036;-77
2023/09/09 09:08:29;;;;;;;7.30;4.47;;;;;;;;;;4890870;29;20052;-77
2023/09/09 09:10:57;;;;;;;7.03;3.80;;;;;;;;;;4905475;29;20036;-77
2023/09/09 09:13:22;;;;;;;8.20;4.03;;;;;;;;;;4904206;29;20025;-76
2023/09/09 09:15:48;;;;;;;9.15;4.00;;;;;;;;;;4900467;29;20400;-78
2023/09/09 09:18:13;;;;;;;8.43;3.95;;;;;;;;;;4888078;29;20104;-78
2023/09/09 09:20:40;;;;;;;7.57;4.32;;;;;;;;;;4888135;29;20374;-77
2023/09/09 09:23:09;;;;;;;7.07;4.30;;;;;;;;;;4895410;29;20047;-77
2023/09/09 09:25:36;;;;;;;6.88;4.05;;;;;;;;;;4899529;29;20032;-77
2023/09/09 09:28:03;;;;;;;6.88;4.07;;;;;;;;;;4894126;29;20407;-77
2023/09/09 09:30:29;;;;;;;7.97;4.40;;;;;;;;;;4899671;29;20060;-77
2023/09/09 09:32:55;;;;;;;7.20;3.63;;;;;;;;;;4882202;29;20029;-77
2023/09/09 09:35:21;;;;;;;13.82;4.95;;;;;;;;;;4897390;29;20024;-77
2023/09/09 09:37:50;;;;;;;8.05;3.95;;;;;;;;;;4898228;29;20080;-77
2023/09/09 09:40:16;;;;;;;6.97;4.25;;;;;;;;;;4898134;29;20513;-78
2023/09/09 09:42:42;;;;;;;7.38;4.18;;;;;;;;;;4881492;29;20033;-77
2023/09/09 09:45:08;;;;;;;10.63;4.05;;;;;;;;;;4886745;29;20446;-77
2023/09/09 09:47:50;;;;;;;7.28;3.60;;;;;;;;;;4896494;29;20503;-77
2023/09/09 09:50:19;;;;;;;8.98;4.00;;;;;;;;;;4912491;29;20060;-77
2023/09/09 09:53:08;;;;;;;9.48;3.97;;;;;;;;;;4896939;29;20051;-77
2023/09/09 09:55:35;;;;;;;9.85;4.40;;;;;;;;;;4898528;29;20099;-76
2023/09/09 09:58:00;;;;;;;7.50;3.63;;;;;;;;;;4899040;29;20032;-76
2023/09/09 10:00:27;;;;;;;8.65;4.20;;;;;;;;;;4882153;29;20037;-77
2023/09/09 10:02:57;;;;;;;8.40;4.15;;;;;;;;;;4909904;29;20514;-78
2023/09/09 10:05:27;;;;;;;7.78;4.45;;;;;;;;;;4898146;29;20048;-77
2023/09/09 10:07:54;;;;;;;9.00;4.00;;;;;;;;;;4898640;29;20040;-78
2023/09/09 10:10:21;;;;;;;7.80;4.40;;;;;;;;;;4882013;29;20083;-77
2023/09/09 10:12:47;;;;;;;5.97;4.20;;;;;;;;;;4898495;29;20075;-77
2023/09/09 10:15:13;;;;;;;8.82;4.00;;;;;;;;;;4898533;29;20029;-78
2023/09/09 10:17:39;;;;;;;7.10;4.13;;;;;;;;;;4867593;29;20052;-77
2023/09/09 10:20:05;;;;;;;6.35;4.07;;;;;;;;;;4881791;29;20036;-77
2023/09/09 10:22:33;;;;;;;7.68;4.20;;;;;;;;;;4910441;29;20035;-77
2023/09/09 10:25:03;;;;;;;6.22;3.97;;;;;;;;;;4900009;29;20068;-78
2023/09/09 10:27:29;;;;;;;10.32;3.70;;;;;;;;;;4899805;29;20033;-77
2023/09/09 10:29:55;;;;;;;9.00;3.92;;;;;;;;;;4899076;29;20112;-77
2023/09/09 10:32:21;;;;;;;9.45;4.05;;;;;;;;;;4899105;29;20080;-78
2023/09/09 10:34:50;;;;;;;6.13;3.97;;;;;;;;;;4900229;29;20120;-77
2023/09/09 10:37:17;;;;;;;5.72;3.30;;;;;;;;;;4913864;29;20039;-78
2023/09/09 10:39:45;;;;;;;6.60;3.85;;;;;;;;;;4900555;29;20100;-77
2023/09/09 10:42:11;;;;;;;8.15;4.10;;;;;;;;;;4883583;29;20037;-77
2023/09/09 10:44:38;;;;;;;7.90;3.40;;;;;;;;;;4910704;29;20033;-77
2023/09/09 10:47:07;;;;;;;6.95;4.10;;;;;;;;;;4893623;29;20404;-77
2023/09/09 10:49:33;;;;;;;12.95;3.15;;;;;;;;;;4878673;29;20043;-77
2023/09/09 10:51:58;;;;;;;5.47;3.15;;;;;;;;;;4878354;29;20025;-77
2023/09/09 10:54:25;;;;;;;7.80;3.22;;;;;;;;;;4878294;29;20065;-77
2023/09/09 10:56:52;;;;;;;8.37;3.67;;;;;;;;;;4894644;29;20043;-78
2023/09/09 10:59:19;;;;;;;10.38;3.75;;;;;;;;;;4896594;29;20085;-77
2023/09/09 11:01:44;;;;;;;8.65;4.03;;;;;;;;;;4898584;29;20476;-78
2023/09/09 11:04:18;;;;;;;5.70;3.53;;;;;;;;;;4898239;29;20111;-78
2023/09/09 11:06:57;;;;;;;5.35;3.47;;;;;;;;;;4897756;29;20033;-78
2023/09/09 11:09:27;;;;;;;7.95;3.42;;;;;;;;;;4897668;29;20500;-78
2023/09/09 11:11:54;;;;;;;7.45;3.92;;;;;;;;;;4897667;29;20036;-77
2023/09/09 11:14:20;;;;;;;;;;;;;;;;;;4898427;29;20033;-78
2023/09/09 11:16:48;;;;;;;7.43;3.20;;;;;;;;;;4911706;29;20430;-77
2023/09/09 11:19:16;;;;;;;6.75;3.47;;;;;;;;;;4897343;29;20044;-78
2023/09/09 11:21:46;;;;;;;5.93;3.58;;;;;;;;;;4883875;29;20040;-78
2023/09/09 11:24:12;;;;;;;7.45;3.17;;;;;;;;;;4900241;29;20122;-77
2023/09/09 11:26:38;;;;;;;7.00;3.90;;;;;;;;;;4884834;29;20126;-77
2023/09/09 11:29:05;;;;;;;5.55;3.13;;;;;;;;;;4901032;29;20037;-78
2023/09/09 11:31:33;;;;;;;12.65;5.18;;;;;;;;;;4900080;29;26182;-77
2023/09/09 11:33:59;;;;;;;7.82;3.67;;;;;;;;;;4901824;29;20029;-78
2023/09/09 11:36:25;;;;;;;5.05;2.90;;;;;;;;;;4915785;29;20032;-78
2023/09/09 11:38:53;;;;;;;4.90;3.03;;;;;;;;;;4900322;29;20029;-77
2023/09/09 11:41:23;;;;;;;6.95;3.78;;;;;;;;;;4901685;29;20039;-77
2023/09/09 11:44:02;;;;;;;6.90;3.53;;;;;;;;;;4900408;29;20057;-78
2023/09/09 11:46:38;;;;;;;4.82;3.42;;;;;;;;;;4884481;29;20084;-78
2023/09/09 11:49:04;;;;;;;11.05;3.40;;;;;;;;;;4899368;29;20515;-77
2023/09/09 11:51:30;;;;;;;8.82;3.72;;;;;;;;;;4899230;29;20029;-78
2023/09/09 11:53:55;;;;;;;7.65;3.25;;;;;;;;;;4901194;29;20416;-78
2023/09/09 11:56:21;;;;;;;5.85;3.45;;;;;;;;;;4900527;29;20021;-78
2023/09/09 11:58:47;;;;;;;7.38;3.85;;;;;;;;;;4914703;29;20549;-79
2023/09/09 12:01:13;;;;;;;6.63;3.70;;;;;;;;;;4899269;29;20040;-79
2023/09/09 12:03:38;;;;;;;8.25;3.45;;;;;;;;;;4900620;29;20037;-78
2023/09/09 12:06:06;;;;;;;6.60;3.65;;;;;;;;;;4900177;29;20383;-79
2023/09/09 12:08:31;;;;;;;7.22;3.88;;;;;;;;;;4898442;29;20641;-79
2023/09/09 12:10:58;;;;;;;6.22;3.38;;;;;;;;;;4900965;29;20032;-78
2023/09/09 12:13:24;;;;;;;9.52;3.95;;;;;;;;;;4900561;29;20033;-78
2023/09/09 12:15:49;;;;;;;8.50;3.70;;;;;;;;;;4901340;29;20096;-76
2023/09/09 12:18:15;;;;;;;10.20;3.67;;;;;;;;;;4900911;29;20032;-78
2023/09/09 12:21:00;;;;;;;5.63;3.00;;;;;;;;;;4914946;29;20385;-78
2023/09/09 12:23:27;;;;;;;7.50;3.58;;;;;;;;;;4899883;29;20037;-78
2023/09/09 12:26:06;;;;;;;7.93;3.88;;;;;;;;;;4885263;29;20037;-78
2023/09/09 12:28:31;;;;;;;6.75;3.72;;;;;;;;;;4900161;29;20047;-78
2023/09/09 12:31:00;;;;;;;6.72;3.35;;;;;;;;;;4915158;29;20451;-78
2023/09/09 12:33:26;;;;;;;6.38;3.45;;;;;;;;;;4881229;29;20405;-77
2023/09/09 12:35:51;;;;;;;7.57;3.35;;;;;;;;;;4881591;29;20025;-78
2023/09/09 12:38:20;;;;;;;5.70;3.10;;;;;;;;;;4896097;29;20371;-80
2023/09/09 12:40:52;;;;;;;8.18;3.58;;;;;;;;;;4881934;29;20124;-78
2023/09/09 12:43:30;;;;;;;9.52;3.25;;;;;;;;;;4890492;29;20056;-78
2023/09/09 12:46:01;;;;;;;5.28;2.85;;;;;;;;;;4899315;29;20032;-78
2023/09/09 12:48:27;;;;;;;5.07;3.20;;;;;;;;;;4903684;29;20028;-82
2023/09/09 12:50:52;;;;;;;4.85;3.17;;;;;;;;;;4877764;29;20032;-77
2023/09/09 12:53:18;;;;;;;4.97;2.92;;;;;;;;;;4887998;29;20036;-79
2023/09/09 12:55:46;;;;;;;6.28;3.45;;;;;;;;;;4900841;29;20081;-78
2023/09/09 12:58:13;;;;;;;7.88;4.00;;;;;;;;;;4900275;29;20377;-77
2023/09/09 13:00:39;;;;;;;5.95;3.38;;;;;;;;;;4865078;29;20038;-79
2023/09/09 13:03:05;;;;;;;8.20;3.10;;;;;;;;;;4884862;29;20127;-77
2023/09/09 13:05:32;;;;;;;5.95;3.60;;;;;;;;;;4914861;29;20043;-78
2023/09/09 13:07:58;;;;;;;7.38;3.33;;;;;;;;;;4882544;29;20033;-78
2023/09/09 13:10:23;;;;;;;5.93;3.42;;;;;;;;;;4899581;29;20028;-77
2023/09/09 13:12:49;;;;;;;6.10;3.50;;;;;;;;;;4898800;29;20024;-78
2023/09/09 13:15:14;;;;;;;5.47;3.20;;;;;;;;;;4899515;29;20047;-77
2023/09/09 13:17:40;;;;;;;7.00;3.92;;;;;;;;;;4876033;29;20033;-79
2023/09/09 13:20:07;;;;;;;7.90;3.28;;;;;;;;;;4881088;29;20097;-77
2023/09/09 13:22:32;;;;;;;5.15;3.08;;;;;;;;;;4895001;29;20416;-77
2023/09/09 13:24:58;;;;;;;6.50;3.08;;;;;;;;;;4878781;29;20040;-77
2023/09/09 13:27:23;;;;;;;8.57;4.13;;;;;;;;;;4880225;29;20037;-78
2023/09/09 13:29:50;;;;;;;7.03;3.80;;;;;;;;;;4895525;29;20112;-78
2023/09/09 13:32:15;;;;;;;5.15;3.50;;;;;;;;;;4880828;29;20048;-78
2023/09/09 13:34:43;;;;;;;5.53;3.50;;;;;;;;;;4890855;29;20372;-78
2023/09/09 13:37:08;;;;;;;7.85;3.78;;;;;;;;;;4898414;29;20096;-77
2023/09/09 13:39:34;;;;;;;4.95;3.13;;;;;;;;;;4882949;29;20029;-78
2023/09/09 13:42:00;;;;;;;5.10;4.00;;;;;;;;;;4883159;29;20028;-78
2023/09/09 13:44:25;;;;;;;7.95;3.70;;;;;;;;;;4898513;29;20033;-78
2023/09/09 13:46:51;;;;;;;6.25;3.40;;;;;;;;;;4882553;29;20041;-78
2023/09/09 13:49:17;;;;;;;5.72;3.70;;;;;;;;;;4883929;29;20037;-79
2023/09/09 13:51:42;;;;;;;7.05;3.85;;;;;;;;;;4862409;29;20040;-78
2023/09/09 13:54:08;;;;;;;8.63;3.20;;;;;;;;;;4887470;29;20552;-78
2023/09/09 13:56:34;;;;;;;8.07;3.25;;;;;;;;;;4894486;29;20060;-77
2023/09/09 13:58:59;;;;;;;7.88;3.30;;;;;;;;;;4912417;29;20057;-77
2023/09/09 14:01:25;;;;;;;6.18;3.60;;;;;;;;;;4898224;29;20032;-77
2023/09/09 14:03:50;;;;;;;8.52;3.13;;;;;;;;;;4898924;29;20041;-77
2023/09/09 14:06:16;;;;;;;7.07;3.22;;;;;;;;;;4897268;29;20042;-78
2023/09/09 14:08:41;;;;;;;6.97;3.83;;;;;;;;;;4913118;29;20075;-78
2023/09/09 14:11:07;;;;;;;6.13;3.17;;;;;;;;;;4913305;29;20033;-78
2023/09/09 14:13:32;;;;;;;5.82;3.30;;;;;;;;;;4913929;29;20024;-78
2023/09/09 14:15:58;;;;;;;7.75;3.30;;;;;;;;;;4900214;29;20029;-78
2023/09/09 14:18:24;;;;;;;5.05;2.90;;;;;;;;;;4897726;29;20037;-77
2023/09/09 14:20:53;;;;;;;5.50;3.10;;;;;;;;;;4897109;29;20404;-77
2023/09/09 14:23:18;;;;;;;5.28;3.40;;;;;;;;;;4898526;29;20033;-76
2023/09/09 14:25:44;;;;;;;5.15;3.17;;;;;;;;;;4882465;29;20035;-78
2023/09/09 14:28:10;;;;;;;4.88;2.92;;;;;;;;;;4900932;29;20510;-78
2023/09/09 14:30:35;;;;;;;4.45;3.05;;;;;;;;;;4898433;29;20033;-77
2023/09/09 14:33:01;;;;;;;10.20;3.53;;;;;;;;;;4898414;29;20032;-77
2023/09/09 14:35:28;;;;;;;5.65;3.30;;;;;;;;;;4896865;29;20033;-78
2023/09/09 14:37:54;;;;;;;5.10;3.25;;;;;;;;;;4881094;29;20082;-77
2023/09/09 14:40:20;;;;;;;4.75;2.88;;;;;;;;;;4914099;29;20032;-78